Time;durP1;ratioP1;P1;durP2;ratioP2;P2;SDS_P1;SDS_P2;PMS_P1;PMS_P2;Temp;Humidity;BMP_temperature;BMP_pressure;BME280_temperature;BME280_humidity;BME280_pressure;Samples;Min_cycle;Max_cycle;Signal;HPM_P1;HPM_P2
2022/01/18 00:00:50;;;;;;;12.60;6.40;;;;;;;0.58;74.74;101055.51;87651;1284;81048;-64
2022/01/18 00:02:59;;;;;;;31.00;15.50;;;;;;;0.55;74.69;101058.39;87492;1285;101714;-62
2022/01/18 00:05:07;;;;;;;34.20;18.30;;;;;;;0.51;74.56;101059.70;87635;1284;89029;-63
2022/01/18 00:07:13;;;;;;;26.40;12.10;;;;;;;0.49;74.68;101062.52;87492;1285;94148;-63
2022/01/18 00:09:25;;;;;;;24.60;12.50;;;;;;;0.45;74.54;101061.38;87603;1284;77546;-62
2022/01/18 00:11:38;;;;;;;37.40;18.60;;;;;;;0.41;74.49;101061.48;87613;1284;82695;-62
2022/01/18 00:13:46;;;;;;;39.00;17.30;;;;;;;0.37;74.53;101064.09;87608;1284;99455;-63
2022/01/18 00:16:09;;;;;;;34.60;15.90;;;;;;;0.33;74.50;101066.20;87618;1284;87840;-62
2022/01/18 00:18:18;;;;;;;29.00;14.40;;;;;;;0.28;74.55;101066.70;87431;1285;92713;-62
2022/01/18 00:20:36;;;;;;;21.40;11.10;;;;;;;0.25;74.57;101074.58;87483;1285;77863;-63
2022/01/18 00:22:45;;;;;;;20.30;9.50;;;;;;;0.21;74.61;101074.29;87496;1285;81516;-63
2022/01/18 00:24:51;;;;;;;27.80;14.20;;;;;;;0.19;74.63;101069.80;87496;1285;100828;-62
2022/01/18 00:26:57;;;;;;;18.80;8.20;;;;;;;0.17;74.61;101069.94;87626;1284;87594;-62
2022/01/18 00:29:08;;;;;;;17.40;8.50;;;;;;;0.18;74.67;101065.48;87613;1284;95042;-68
2022/01/18 00:33:49;;;;;;;15.20;8.00;;;;;;;0.21;74.69;101071.28;87613;1284;80581;-62
2022/01/18 00:36:01;;;;;;;18.10;10.00;;;;;;;0.24;74.73;101071.44;87555;1284;98967;-62
2022/01/18 00:38:16;;;;;;;16.00;7.60;;;;;;;0.27;74.79;101079.90;87604;1284;88403;-62
2022/01/18 00:40:22;;;;;;;15.80;7.40;;;;;;;0.32;74.90;101083.23;87619;1284;95529;-68
2022/01/18 00:42:28;;;;;;;14.20;6.80;;;;;;;0.34;74.71;101084.18;87652;1284;79511;-67
2022/01/18 00:44:34;;;;;;;19.30;10.80;;;;;;;0.35;74.78;101088.73;87634;1284;83874;-62
2022/01/18 00:46:41;;;;;;;15.90;8.80;;;;;;;0.32;74.71;101091.56;87520;1285;101278;-62
2022/01/18 00:48:47;;;;;;;12.10;5.80;;;;;;;0.30;74.63;101097.39;87514;1285;88686;-63
2022/01/18 00:50:53;;;;;;;13.60;5.50;;;;;;;0.23;74.62;101096.47;87621;1284;96025;-62
2022/01/18 00:52:59;;;;;;;13.20;5.20;;;;;;;0.17;74.74;101098.11;87473;1285;79109;-62
2022/01/18 00:55:07;;;;;;;10.80;4.20;;;;;;;0.14;74.83;101107.58;87612;1284;82045;-62
2022/01/18 00:57:12;;;;;;;11.80;4.40;;;;;;;0.11;74.67;101113.06;87635;1284;99509;-62
2022/01/18 00:59:22;;;;;;;10.30;3.90;;;;;;;0.08;74.82;101117.14;87602;1284;87557;-68
2022/01/18 01:01:31;;;;;;;11.10;5.10;;;;;;;0.08;74.82;101120.89;87598;1284;95316;-68
2022/01/18 01:03:36;;;;;;;11.90;6.80;;;;;;;0.05;74.90;101125.51;87629;1284;76893;-68
2022/01/18 01:05:45;;;;;;;14.10;6.90;;;;;;;0.01;74.91;101128.30;87632;1284;82253;-68
2022/01/18 01:07:51;;;;;;;14.40;6.80;;;;;;;-0.02;74.89;101132.38;87647;1284;99464;-68
2022/01/18 01:09:57;;;;;;;14.30;7.00;;;;;;;-0.05;75.08;101137.69;87401;1285;86924;-68
2022/01/18 01:12:10;;;;;;;20.80;9.40;;;;;;;-0.06;75.00;101140.45;87574;1284;94743;-68
2022/01/18 01:14:22;;;;;;;16.20;8.20;;;;;;;-0.04;75.15;101143.33;87590;1284;79471;-62
2022/01/18 01:16:51;;;;;;;13.90;5.60;;;;;;;-0.03;75.23;101148.02;87609;1284;83160;-62
2022/01/18 01:19:11;;;;;;;20.70;8.80;;;;;;;-0.02;75.18;101150.77;87629;1284;98229;-66
2022/01/18 01:33:57;;;;;;;12.80;5.50;;;;;;;-0.46;75.08;101162.98;87604;1284;89455;-62
2022/01/18 01:36:31;;;;;;;20.70;9.00;;;;;;;-0.61;75.15;101165.20;87516;1285;94393;-67
2022/01/18 01:43:36;;;;;;;;;;;;;;;-0.93;75.53;101177.00;87622;1284;98956;-67
2022/01/18 01:45:45;;;;;;;10.90;4.30;;;;;;;-1.02;75.42;101174.94;87624;1284;88693;-68
2022/01/18 01:47:52;;;;;;;11.70;4.00;;;;;;;-1.08;75.73;101179.89;87611;1284;95345;-68
2022/01/18 01:50:02;;;;;;;9.70;4.10;;;;;;;-1.12;75.77;101173.42;87498;1285;80754;-62
2022/01/18 01:52:12;;;;;;;8.60;3.60;;;;;;;-1.17;75.76;101173.81;87638;1284;83730;-62
2022/01/18 01:54:18;;;;;;;8.90;3.90;;;;;;;-1.26;75.94;101176.42;87539;1285;98924;-68
2022/01/18 01:56:24;;;;;;;10.60;4.10;;;;;;;-1.29;75.99;101180.01;87490;1285;88274;-68
2022/01/18 01:58:31;;;;;;;9.30;4.20;;;;;;;-1.32;75.95;101177.55;87584;1284;95696;-69
2022/01/18 02:00:44;;;;;;;8.10;3.90;;;;;;;-1.35;76.23;101181.92;87602;1284;79637;-62
2022/01/18 02:02:52;;;;;;;7.80;3.50;;;;;;;-1.41;76.15;101171.38;87625;1284;80482;-62
2022/01/18 02:04:58;;;;;;;10.10;4.70;;;;;;;-1.42;76.34;101171.27;87420;1285;101010;-68
2022/01/18 02:07:05;;;;;;;12.50;3.70;;;;;;;-1.43;76.56;101169.21;87588;1284;89131;-68
2022/01/18 02:09:14;;;;;;;9.30;4.30;;;;;;;-1.46;76.58;101173.83;87585;1284;95586;-62
2022/01/18 02:11:20;;;;;;;11.20;5.00;;;;;;;-1.47;76.59;101181.30;87586;1284;78368;-62
2022/01/18 02:13:25;;;;;;;13.20;5.40;;;;;;;-1.48;76.67;101187.04;87626;1284;81818;-62
2022/01/18 02:15:38;;;;;;;12.60;4.80;;;;;;;-1.52;76.67;101187.45;87532;1285;99188;-68
2022/01/18 02:22:42;;;;;;;9.70;4.20;;;;;;;-1.70;76.94;101177.77;87585;1284;79324;-62
2022/01/18 02:24:50;;;;;;;14.10;5.00;;;;;;;-1.76;77.08;101187.16;87629;1284;82783;-62
2022/01/18 02:26:59;;;;;;;9.50;4.00;;;;;;;-1.84;77.19;101185.63;87599;1284;100199;-62
2022/01/18 02:29:10;;;;;;;9.00;4.00;;;;;;;-1.91;77.12;101184.33;87604;1284;89353;-62
2022/01/18 02:31:18;;;;;;;11.40;4.60;;;;;;;-1.95;77.25;101188.28;87305;1285;95213;-63
2022/01/18 02:33:27;;;;;;;9.80;4.00;;;;;;;-1.98;77.44;101190.73;87556;1285;80675;-63
2022/01/18 02:35:35;;;;;;;13.40;4.00;;;;;;;-1.99;77.54;101189.92;87639;1284;81030;-62
2022/01/18 02:37:41;;;;;;;8.70;4.10;;;;;;;-1.96;77.71;101190.30;87533;1285;100999;-61
2022/01/18 02:39:47;;;;;;;8.60;3.10;;;;;;;-1.93;77.76;101190.24;87591;1284;88209;-68
2022/01/18 02:42:01;;;;;;;10.40;4.20;;;;;;;-1.92;77.69;101194.61;87615;1284;95177;-68
2022/01/18 02:44:10;;;;;;;11.00;4.40;;;;;;;-1.92;77.73;101199.02;87598;1284;78124;-62
2022/01/18 02:46:19;;;;;;;8.70;4.00;;;;;;;-1.92;77.84;101203.43;87633;1284;82079;-61
2022/01/18 02:48:28;;;;;;;9.80;4.20;;;;;;;-1.94;77.90;101210.81;87610;1284;100321;-62
2022/01/18 02:50:34;;;;;;;9.30;4.60;;;;;;;-1.98;77.87;101212.45;87629;1284;87423;-61
2022/01/18 02:52:39;;;;;;;10.00;4.70;;;;;;;-2.04;77.70;101219.16;87599;1284;92761;-61
2022/01/18 02:54:45;;;;;;;10.00;4.00;;;;;;;-2.09;77.69;101217.87;87611;1284;77228;-68
2022/01/18 02:56:58;;;;;;;9.70;4.50;;;;;;;-2.15;77.87;101219.63;87619;1284;79774;-69
2022/01/18 02:59:14;;;;;;;11.70;4.80;;;;;;;-2.21;77.94;101213.49;87608;1284;99982;-62
2022/01/18 03:03:47;;;;;;;8.70;3.60;;;;;;;-2.34;77.93;101217.25;87635;1284;94445;-62
2022/01/18 03:05:57;;;;;;;10.70;4.20;;;;;;;-2.36;78.31;101212.42;87611;1284;80703;-69
2022/01/18 03:08:03;;;;;;;11.90;3.50;;;;;;;-2.37;78.31;101216.15;87614;1284;82019;-68
2022/01/18 03:10:13;;;;;;;8.50;3.70;;;;;;;-2.38;78.56;101214.29;87612;1284;98690;-62
2022/01/18 03:12:19;;;;;;;7.60;2.90;;;;;;;-2.38;78.54;101217.79;87630;1284;87759;-62
2022/01/18 03:14:28;;;;;;;8.00;3.80;;;;;;;-2.36;78.47;101218.95;87524;1284;95795;-62
2022/01/18 03:16:38;;;;;;;11.00;3.80;;;;;;;-2.32;78.44;101219.97;87600;1284;78358;-62
2022/01/18 03:18:43;;;;;;;8.10;3.90;;;;;;;-2.32;78.51;101221.67;87615;1284;80954;-61
2022/01/18 03:20:49;;;;;;;8.60;3.90;;;;;;;-2.32;78.72;101222.78;87596;1284;99068;-68
2022/01/18 03:22:55;;;;;;;10.30;4.50;;;;;;;-2.33;78.73;101229.52;87609;1284;89636;-69
2022/01/18 03:25:24;;;;;;;9.00;4.10;;;;;;;-2.33;78.83;101230.59;87591;1284;95132;-67
2022/01/18 03:29:54;;;;;;;9.50;3.90;;;;;;;-2.36;79.07;101237.30;87588;1284;83226;-68
2022/01/18 03:31:59;;;;;;;9.20;3.70;;;;;;;-2.39;78.92;101240.29;87609;1284;100826;-68
2022/01/18 03:34:06;;;;;;;12.70;4.10;;;;;;;-2.45;78.78;101240.45;87473;1285;88000;-62
2022/01/18 03:36:14;;;;;;;11.40;3.50;;;;;;;-2.50;78.98;101246.50;87505;1285;95077;-62
2022/01/18 03:38:21;;;;;;;8.10;3.50;;;;;;;-2.50;79.07;101244.08;87577;1284;78752;-61
2022/01/18 03:40:29;;;;;;;9.00;3.00;;;;;;;-2.48;79.25;101243.94;87621;1284;81365;-61
2022/01/18 03:42:40;;;;;;;8.20;3.50;;;;;;;-2.47;79.55;101247.92;87597;1284;100813;-61
2022/01/18 03:44:48;;;;;;;10.20;3.10;;;;;;;-2.43;79.44;101251.79;87628;1284;88465;-67
2022/01/18 03:46:54;;;;;;;9.90;3.60;;;;;;;-2.39;79.40;101257.35;87573;1284;95629;-69
2022/01/18 03:49:02;;;;;;;8.40;3.20;;;;;;;-2.33;79.59;101259.16;87564;1283;78327;-61
2022/01/18 03:51:10;;;;;;;9.20;3.70;;;;;;;-2.28;79.71;101261.14;87611;1284;81390;-62
2022/01/18 03:53:18;;;;;;;8.80;3.50;;;;;;;-2.29;79.71;101265.98;87594;1285;100021;-62
2022/01/18 03:55:24;;;;;;;10.70;3.70;;;;;;;-2.32;79.77;101265.29;87599;1284;89172;-68
2022/01/18 03:57:30;;;;;;;11.50;3.90;;;;;;;-2.35;79.84;101272.15;87578;1284;94304;-68
2022/01/18 03:59:36;;;;;;;9.70;3.60;;;;;;;-2.39;79.59;101276.44;87609;1284;77645;-62
2022/01/18 04:01:45;;;;;;;8.70;3.70;;;;;;;-2.45;79.67;101275.01;87643;1284;81066;-61
2022/01/18 04:03:56;;;;;;;12.30;3.70;;;;;;;-2.49;79.53;101280.35;87335;1284;356537;-61
2022/01/18 04:06:07;;;;;;;10.30;3.40;;;;;;;-2.53;79.60;101288.29;87603;1284;89233;-68
2022/01/18 04:08:16;;;;;;;9.50;2.90;;;;;;;-2.56;79.80;101289.17;87595;1284;94222;-68
2022/01/18 04:10:22;;;;;;;7.70;3.10;;;;;;;-2.56;79.90;101296.95;87623;1283;81034;-60
2022/01/18 04:12:27;;;;;;;11.70;3.40;;;;;;;-2.55;79.92;101300.75;87623;1284;80389;-62
2022/01/18 04:14:36;;;;;;;10.10;3.80;;;;;;;-2.54;79.91;101301.95;87603;1284;99170;-62
2022/01/18 04:16:56;;;;;;;7.80;3.00;;;;;;;-2.51;80.02;101305.67;87610;1284;88775;-61
2022/01/18 04:19:33;;;;;;;7.90;3.00;;;;;;;-2.51;80.10;101305.11;87586;1284;95886;-67
2022/01/18 04:29:00;;;;;;;8.00;2.70;;;;;;;-2.44;80.34;101319.04;87569;1284;89484;-67
2022/01/18 04:31:09;;;;;;;6.60;2.70;;;;;;;-2.43;80.29;101322.50;87601;1284;95138;-69
2022/01/18 04:33:14;;;;;;;9.00;3.40;;;;;;;-2.43;80.28;101330.77;87580;1285;78399;-67
2022/01/18 04:35:23;;;;;;;11.30;3.60;;;;;;;-2.41;80.48;101336.29;87610;1284;82857;-68
2022/01/18 04:37:29;;;;;;;10.20;3.10;;;;;;;-2.41;80.58;101338.41;87609;1284;101059;-68
2022/01/18 04:39:39;;;;;;;11.10;3.50;;;;;;;-2.40;80.64;101339.08;87642;1283;88810;-62
2022/01/18 04:41:46;;;;;;;11.70;3.20;;;;;;;-2.40;80.60;101341.90;87575;1284;94434;-61
2022/01/18 04:44:06;;;;;;;8.70;3.00;;;;;;;-2.42;80.45;101344.17;87610;1284;78897;-65
2022/01/18 04:48:37;;;;;;;;;;;;;;;-2.46;80.38;101354.73;87604;1284;99706;-68
2022/01/18 04:50:43;;;;;;;39.10;15.50;;;;;;;-2.43;80.58;101356.20;87595;1284;87622;-62
2022/01/18 04:52:48;;;;;;;33.00;14.30;;;;;;;-2.42;80.64;101363.33;87625;1284;95514;-68
2022/01/18 04:55:00;;;;;;;28.60;12.70;;;;;;;-2.37;80.76;101363.77;87531;1284;79117;-61
2022/01/18 04:59:31;;;;;;;55.30;24.80;;;;;;;-2.17;81.08;101377.15;87597;1284;99983;-68
2022/01/18 05:01:40;;;;;;;41.40;18.80;;;;;;;-2.06;81.05;101380.43;87583;1284;87508;-69
2022/01/18 05:03:45;;;;;;;36.50;15.30;;;;;;;-1.98;81.11;101384.88;87592;1284;96098;-70
2022/01/18 05:05:55;;;;;;;33.50;15.30;;;;;;;-1.85;81.17;101395.11;87574;1284;79460;-62
2022/01/18 05:08:04;;;;;;;28.40;13.10;;;;;;;-1.72;81.18;101397.56;87542;1285;81871;-62
2022/01/18 05:10:11;;;;;;;22.60;10.20;;;;;;;-1.62;81.18;101397.33;87521;1285;99574;-62
2022/01/18 05:12:29;;;;;;;19.30;8.80;;;;;;;-1.54;81.04;101398.10;87589;1284;89444;-61
2022/01/18 05:14:36;;;;;;;24.10;9.60;;;;;;;-1.47;80.95;101398.91;87613;1284;93714;-62
2022/01/18 05:16:56;;;;;;;16.20;6.20;;;;;;;-1.47;81.04;101392.91;87594;1284;77233;-62
2022/01/18 05:19:12;;;;;;;16.80;6.00;;;;;;;-1.50;80.93;101390.05;87582;1284;80793;-61
2022/01/18 05:21:24;;;;;;;10.50;4.50;;;;;;;-1.56;80.90;101393.44;87580;1284;99724;-61
2022/01/18 05:23:29;;;;;;;10.60;5.40;;;;;;;-1.63;80.80;101397.73;87576;1284;89198;-61
2022/01/18 05:25:36;;;;;;;12.10;4.10;;;;;;;-1.68;80.73;101396.79;87599;1284;94150;-69
2022/01/18 05:27:42;;;;;;;10.10;3.50;;;;;;;-1.74;80.70;101394.99;87578;1284;80372;-69
2022/01/18 05:29:48;;;;;;;9.70;4.50;;;;;;;-1.78;80.90;101391.32;87442;1286;79257;-70
2022/01/18 05:31:54;;;;;;;9.70;4.40;;;;;;;-1.82;81.01;101395.08;87590;1284;99696;-71
2022/01/18 05:33:59;;;;;;;15.80;5.70;;;;;;;-1.86;81.07;101395.30;87569;1284;89099;-68
2022/01/18 05:36:06;;;;;;;20.40;7.40;;;;;;;-1.88;80.97;101391.19;87566;1284;95624;-67
2022/01/18 05:38:12;;;;;;;23.10;8.30;;;;;;;-1.88;80.92;101386.27;87581;1284;80435;-69
2022/01/18 05:40:23;;;;;;;18.80;8.00;;;;;;;-1.91;80.98;101389.60;87599;1283;83511;-68
2022/01/18 05:42:28;;;;;;;17.60;6.90;;;;;;;-1.92;81.07;101393.20;87571;1284;99930;-69
2022/01/18 05:44:37;;;;;;;19.00;7.00;;;;;;;-1.90;81.33;101396.25;87588;1284;88211;-61
2022/01/18 05:46:43;;;;;;;15.80;6.80;;;;;;;-1.91;81.19;101395.41;87580;1284;95002;-62
2022/01/18 05:48:52;;;;;;;13.30;5.80;;;;;;;-1.90;81.29;101397.70;87557;1284;80621;-61
2022/01/18 05:51:01;;;;;;;16.70;6.50;;;;;;;-1.93;81.35;101395.16;87612;1284;81685;-61
2022/01/18 05:53:10;;;;;;;11.80;5.10;;;;;;;-1.93;81.42;101397.52;87601;1284;99834;-63
2022/01/18 05:55:16;;;;;;;12.40;5.30;;;;;;;-1.94;81.22;101399.48;87563;1284;87078;-63
2022/01/18 05:57:21;;;;;;;12.50;5.10;;;;;;;-1.96;81.36;101404.02;87591;1284;94124;-63
2022/01/18 05:59:35;;;;;;;10.20;4.20;;;;;;;-1.98;81.43;101405.19;87554;1284;79616;-70
2022/01/18 06:01:47;;;;;;;13.00;4.80;;;;;;;-1.96;81.21;101406.67;87569;1284;81656;-70
2022/01/18 06:04:09;;;;;;;10.50;4.10;;;;;;;-1.99;81.39;101408.05;87578;1284;100619;-63
2022/01/18 06:08:39;;;;;;;6.90;3.30;;;;;;;-1.99;81.59;101410.73;87567;1284;94645;-61
2022/01/18 06:10:48;;;;;;;9.70;2.50;;;;;;;-2.01;81.61;101406.21;87579;1284;80239;-69
2022/01/18 06:13:00;;;;;;;6.60;2.70;;;;;;;-2.01;81.46;101412.23;87583;1284;81902;-60
2022/01/18 06:15:08;;;;;;;6.70;2.60;;;;;;;-2.00;81.79;101412.00;87596;1284;100526;-65
2022/01/18 06:17:14;;;;;;;6.70;2.50;;;;;;;-1.99;81.63;101412.98;87609;1284;87820;-63
2022/01/18 06:19:20;;;;;;;8.80;2.90;;;;;;;-1.97;81.60;101414.67;87595;1284;95376;-63
2022/01/18 06:21:26;;;;;;;12.60;4.30;;;;;;;-1.98;81.75;101416.47;87571;1284;78948;-61
2022/01/18 06:23:33;;;;;;;8.60;3.90;;;;;;;-1.97;81.70;101416.42;87567;1284;80902;-65
2022/01/18 06:25:40;;;;;;;14.50;4.70;;;;;;;-1.97;81.83;101420.30;87597;1284;100557;-69
2022/01/18 06:27:46;;;;;;;17.50;5.80;;;;;;;-1.94;82.03;101423.64;87589;1284;87496;-70
2022/01/18 06:29:52;;;;;;;13.90;4.80;;;;;;;-1.94;81.87;101425.59;87581;1284;95409;-62
2022/01/18 06:31:58;;;;;;;14.80;4.80;;;;;;;-1.92;81.90;101426.91;87605;1284;79511;-62
2022/01/18 06:34:07;;;;;;;11.20;3.80;;;;;;;-1.92;81.90;101431.83;87474;1285;82783;-62
2022/01/18 06:36:13;;;;;;;10.00;3.70;;;;;;;-1.90;81.95;101435.98;87550;1284;101195;-62
2022/01/18 06:38:18;;;;;;;9.90;3.40;;;;;;;-1.88;82.08;101437.79;87599;1284;89387;-64
2022/01/18 06:40:27;;;;;;;11.00;4.20;;;;;;;-1.85;81.91;101437.09;87575;1284;96417;-70
2022/01/18 06:42:33;;;;;;;10.30;4.10;;;;;;;-1.83;81.86;101438.75;87570;1284;79877;-70
2022/01/18 06:44:39;;;;;;;7.70;3.60;;;;;;;-1.82;82.21;101440.46;87579;1284;82105;-69
2022/01/18 06:46:48;;;;;;;6.70;3.50;;;;;;;-1.79;82.05;101447.54;87560;1284;98391;-69
2022/01/18 06:48:53;;;;;;;9.90;3.20;;;;;;;-1.75;82.13;101449.79;87554;1284;86562;-68
2022/01/18 06:50:59;;;;;;;7.90;2.60;;;;;;;-1.71;81.89;101456.26;87539;1284;95336;-69
2022/01/18 06:53:05;;;;;;;7.10;2.30;;;;;;;-1.65;81.91;101461.06;87560;1284;80610;-70
2022/01/18 06:55:12;;;;;;;9.20;3.60;;;;;;;-1.62;81.96;101461.09;87582;1283;81110;-70
2022/01/18 06:57:21;;;;;;;8.80;2.80;;;;;;;-1.60;82.05;101455.48;87577;1284;99799;-68
2022/01/18 06:59:26;;;;;;;14.40;6.10;;;;;;;-1.54;82.12;101461.52;87553;1284;89141;-69
2022/01/18 07:01:35;;;;;;;10.90;4.00;;;;;;;-1.51;82.10;101469.59;87573;1284;95035;-69
2022/01/18 07:03:42;;;;;;;9.20;3.10;;;;;;;-1.44;81.88;101480.17;87585;1284;77795;-68
2022/01/18 07:05:48;;;;;;;8.80;2.80;;;;;;;-1.40;82.24;101482.39;87600;1284;80910;-62
2022/01/18 07:07:54;;;;;;;6.60;2.40;;;;;;;-1.38;82.02;101481.59;87558;1284;99647;-62
2022/01/18 07:10:03;;;;;;;9.20;3.70;;;;;;;-1.33;81.99;101478.64;87571;1284;87647;-62
2022/01/18 07:12:15;;;;;;;14.90;5.10;;;;;;;-1.30;81.73;101486.81;87516;1285;94435;-62
2022/01/18 07:14:24;;;;;;;10.30;4.40;;;;;;;-1.29;82.10;101485.14;87531;1285;79697;-69
2022/01/18 07:16:33;;;;;;;13.60;5.00;;;;;;;-1.24;81.86;101486.80;87611;1284;81624;-70
2022/01/18 07:18:38;;;;;;;10.90;3.70;;;;;;;-1.20;81.83;101492.91;87565;1284;99724;-70
2022/01/18 07:20:47;;;;;;;9.50;4.00;;;;;;;-1.09;81.72;101488.39;87565;1284;88978;-62
2022/01/18 07:22:53;;;;;;;10.60;4.00;;;;;;;-0.96;81.83;101487.96;87536;1284;95503;-62
2022/01/18 07:25:10;;;;;;;10.50;3.40;;;;;;;-0.70;82.07;101494.23;87587;1284;82178;-61
2022/01/18 07:27:18;;;;;;;12.30;4.00;;;;;;;-0.25;82.21;101492.36;87596;1284;81277;-62
2022/01/18 07:29:27;;;;;;;11.10;4.50;;;;;;;0.24;82.15;101492.60;87557;1284;99803;-68
2022/01/18 07:31:33;;;;;;;8.40;3.50;;;;;;;1.25;81.98;101501.00;87604;1284;88720;-70
2022/01/18 07:33:39;;;;;;;11.30;3.90;;;;;;;2.15;81.69;101501.67;87572;1284;95815;-71
2022/01/18 07:35:45;;;;;;;6.20;3.20;;;;;;;3.12;81.31;101502.33;87604;1284;77624;-63
2022/01/18 07:37:52;;;;;;;9.70;3.50;;;;;;;4.04;80.52;101500.02;87608;1284;80465;-62
2022/01/18 07:39:58;;;;;;;6.10;3.40;;;;;;;4.84;79.76;101508.11;87619;1284;99995;-63
2022/01/18 07:42:08;;;;;;;7.80;3.10;;;;;;;5.53;78.76;101508.16;87560;1284;88286;-62
2022/01/18 07:44:17;;;;;;;9.30;3.00;;;;;;;6.06;78.21;101515.05;87572;1285;94559;-69
2022/01/18 07:46:27;;;;;;;8.00;3.20;;;;;;;6.65;77.59;101516.20;87596;1284;77060;-69
2022/01/18 07:48:33;;;;;;;32.20;16.60;;;;;;;7.34;76.46;101520.49;87594;1284;79304;-70
2022/01/18 07:50:39;;;;;;;42.10;28.20;;;;;;;7.87;75.17;101528.19;87578;1284;98654;-62
2022/01/18 07:52:45;;;;;;;15.40;8.70;;;;;;;8.21;74.67;101525.67;87583;1284;89060;-62
2022/01/18 07:54:54;;;;;;;6.90;3.80;;;;;;;8.69;73.70;101527.29;87530;1285;95867;-70
2022/01/18 07:57:02;;;;;;;5.40;3.30;;;;;;;9.15;72.42;101529.02;87598;1284;77953;-70
2022/01/18 07:59:09;;;;;;;6.20;3.00;;;;;;;9.59;70.98;101531.01;87589;1284;80645;-68
2022/01/18 08:01:15;;;;;;;9.10;3.20;;;;;;;9.87;70.47;101528.56;87550;1284;100297;-69
2022/01/18 08:03:24;;;;;;;8.50;3.50;;;;;;;10.16;69.53;101530.50;87585;1284;88273;-70
2022/01/18 08:05:33;;;;;;;7.40;3.80;;;;;;;9.93;68.83;101540.43;87564;1284;94044;-69
2022/01/18 08:07:39;;;;;;;7.00;3.20;;;;;;;9.82;68.32;101541.56;87567;1284;77942;-69
2022/01/18 08:09:44;;;;;;;6.00;3.70;;;;;;;10.20;67.72;101543.24;87625;1284;80352;-65
2022/01/18 08:11:52;;;;;;;8.30;3.40;;;;;;;10.72;66.42;101545.09;87561;1284;100026;-63
2022/01/18 08:14:00;;;;;;;6.50;3.20;;;;;;;11.28;65.79;101548.58;87555;1286;87078;-65
2022/01/18 08:16:23;;;;;;;7.50;3.30;;;;;;;11.53;65.09;101551.38;87586;1284;95793;-64
2022/01/18 08:18:32;;;;;;;6.60;3.80;;;;;;;11.11;63.63;101555.67;87580;1284;78257;-64
2022/01/18 08:20:38;;;;;;;6.10;3.50;;;;;;;10.28;63.30;101564.86;83942;1271;3012825;-68
2022/01/18 08:22:45;;;;;;;7.20;3.50;;;;;;;8.85;63.53;101572.59;87526;1286;100172;-72
2022/01/18 08:24:54;;;;;;;8.50;4.50;;;;;;;7.79;63.98;101575.71;87769;1283;89116;-72
2022/01/18 08:27:00;;;;;;;6.90;4.30;;;;;;;7.08;64.33;101573.41;87736;1283;94477;-71
2022/01/18 08:29:10;;;;;;;7.20;4.10;;;;;;;6.43;64.74;101579.23;87729;1283;77939;-71
2022/01/18 08:31:16;;;;;;;8.10;4.20;;;;;;;5.92;65.12;101587.22;87769;1283;82375;-73
2022/01/18 08:33:23;;;;;;;6.90;3.30;;;;;;;5.47;65.49;101590.90;87748;1283;100034;-71
2022/01/18 08:35:31;;;;;;;7.10;3.80;;;;;;;5.10;65.78;101591.84;87717;1283;89193;-71
2022/01/18 08:37:37;;;;;;;7.90;3.20;;;;;;;4.60;66.27;101600.53;87694;1283;95674;-71
2022/01/18 08:39:44;;;;;;;6.90;3.00;;;;;;;4.28;66.80;101609.36;87707;1283;78060;-71
2022/01/18 08:41:50;;;;;;;6.50;3.20;;;;;;;4.03;67.10;101623.60;87718;1283;81214;-62
2022/01/18 08:43:57;;;;;;;11.70;4.40;;;;;;;3.96;67.65;101618.44;87750;1283;101155;-62
2022/01/18 08:46:06;;;;;;;6.50;3.10;;;;;;;4.14;67.66;101626.09;87776;1283;88703;-72
2022/01/18 08:48:12;;;;;;;8.70;2.80;;;;;;;4.25;67.81;101630.48;87551;1284;96778;-69
2022/01/18 08:50:20;;;;;;;7.80;2.70;;;;;;;4.51;67.95;101636.38;87745;1283;77363;-63
2022/01/18 08:52:26;;;;;;;7.40;3.00;;;;;;;4.68;67.86;101633.57;87749;1283;80411;-62
2022/01/18 08:54:32;;;;;;;8.30;2.70;;;;;;;5.08;68.08;101645.03;87704;1283;101008;-62
2022/01/18 08:56:38;;;;;;;7.20;3.00;;;;;;;5.16;67.41;101641.30;87767;1282;88380;-70
2022/01/18 08:58:44;;;;;;;6.50;2.60;;;;;;;5.14;67.43;101648.98;87730;1283;95032;-71
2022/01/18 09:03:32;;;;;;;7.40;3.50;;;;;;;4.68;68.10;101673.95;84460;1282;934884;-63
2022/01/18 09:05:38;;;;;;;8.60;3.10;;;;;;;4.41;68.21;101681.09;87715;1283;100341;-61
2022/01/18 09:07:44;;;;;;;8.60;3.30;;;;;;;4.39;68.47;101678.16;87745;1283;88609;-70
2022/01/18 09:10:02;;;;;;;6.50;3.50;;;;;;;4.80;68.10;101674.63;87636;1284;95512;-70
2022/01/18 09:12:13;;;;;;;9.40;3.60;;;;;;;5.12;67.91;101677.94;87709;1283;78760;-70
2022/01/18 09:14:19;;;;;;;9.30;3.70;;;;;;;5.17;67.71;101687.10;87685;1283;81013;-62
2022/01/18 09:16:24;;;;;;;6.70;3.20;;;;;;;5.24;67.85;101684.39;87681;1283;100430;-62
2022/01/18 09:18:30;;;;;;;11.00;4.50;;;;;;;5.67;68.02;101686.27;87697;1283;89482;-71
2022/01/18 09:20:39;;;;;;;10.90;3.90;;;;;;;5.90;67.75;101691.64;87720;1283;94511;-71
2022/01/18 09:22:48;;;;;;;7.50;3.50;;;;;;;6.10;67.65;101691.79;87720;1283;78755;-63
2022/01/18 09:24:55;;;;;;;9.10;3.80;;;;;;;6.07;67.46;101686.09;87691;1283;83238;-64
2022/01/18 09:27:01;;;;;;;9.00;3.70;;;;;;;6.01;67.36;101685.93;87680;1283;100305;-69
2022/01/18 09:29:12;;;;;;;7.10;3.80;;;;;;;5.90;67.34;101693.61;87695;1283;88677;-63
2022/01/18 09:31:21;;;;;;;6.00;3.00;;;;;;;5.78;67.09;101698.95;87675;1283;95510;-71
2022/01/18 09:33:27;;;;;;;6.80;3.80;;;;;;;5.72;67.01;101697.83;87700;1283;79338;-69
2022/01/18 09:35:34;;;;;;;6.20;3.40;;;;;;;5.70;67.31;101700.10;87726;1283;82461;-72
2022/01/18 09:37:41;;;;;;;7.80;4.00;;;;;;;5.87;67.20;101703.73;87710;1283;99010;-72
2022/01/18 09:39:47;;;;;;;6.60;3.60;;;;;;;6.00;66.92;101708.39;87707;1283;87796;-70
2022/01/18 09:41:57;;;;;;;7.60;3.60;;;;;;;5.91;66.71;101709.14;87710;1283;95297;-62
2022/01/18 09:44:03;;;;;;;5.60;3.10;;;;;;;5.87;66.52;101715.55;87672;1283;78881;-60
2022/01/18 09:46:13;;;;;;;7.00;3.40;;;;;;;5.89;66.76;101723.73;87682;1283;83612;-62
2022/01/18 09:48:19;;;;;;;7.50;3.50;;;;;;;6.15;66.77;101731.96;87698;1283;100685;-63
2022/01/18 09:50:29;;;;;;;8.50;3.90;;;;;;;6.59;66.64;101734.80;87706;1283;87892;-63
2022/01/18 09:52:38;;;;;;;8.50;4.50;;;;;;;7.16;66.54;101726.39;87687;1283;96050;-70
2022/01/18 09:54:44;;;;;;;9.10;3.80;;;;;;;7.59;65.87;101722.83;87654;1283;78609;-62
2022/01/18 09:56:53;;;;;;;7.30;3.60;;;;;;;7.77;65.44;101731.46;87694;1283;82314;-67
2022/01/18 09:58:58;;;;;;;7.60;3.50;;;;;;;7.91;65.45;101735.57;87682;1283;100905;-67
2022/01/18 10:01:04;;;;;;;7.80;4.00;;;;;;;8.31;65.35;101738.83;87692;1283;86981;-63
2022/01/18 10:03:27;;;;;;;6.90;3.50;;;;;;;8.46;65.17;101738.15;87658;1283;94547;-69
2022/01/18 10:05:37;;;;;;;8.00;3.90;;;;;;;8.66;64.91;101745.61;87708;1283;77836;-70
2022/01/18 10:07:44;;;;;;;7.90;3.40;;;;;;;9.17;64.24;101739.25;87673;1283;82101;-69
2022/01/18 10:09:58;;;;;;;8.20;4.00;;;;;;;9.30;63.83;101737.59;87700;1283;100770;-69
2022/01/18 10:12:13;;;;;;;6.60;4.00;;;;;;;9.12;62.81;101742.29;87711;1283;89594;-63
2022/01/18 10:14:22;;;;;;;6.00;3.40;;;;;;;8.94;62.50;101740.08;87680;1283;95678;-63
2022/01/18 10:16:27;;;;;;;7.10;3.80;;;;;;;8.51;62.54;101740.33;87674;1283;79651;-63
2022/01/18 10:18:46;;;;;;;7.30;3.60;;;;;;;8.26;62.37;101740.52;87695;1283;81909;-70
2022/01/18 10:20:53;;;;;;;9.10;5.90;;;;;;;8.25;62.45;101743.30;87666;1283;100401;-68
2022/01/18 10:23:00;;;;;;;8.50;3.90;;;;;;;8.27;61.91;101747.60;87654;1283;88247;-63
2022/01/18 10:25:18;;;;;;;7.00;3.60;;;;;;;8.16;62.22;101748.77;87657;1283;93936;-63
2022/01/18 10:27:34;;;;;;;7.00;3.50;;;;;;;8.27;62.31;101755.46;87687;1283;78591;-63
2022/01/18 10:29:47;;;;;;;6.90;3.40;;;;;;;8.24;62.29;101757.91;87636;1283;83376;-62
2022/01/18 10:31:57;;;;;;;6.80;3.80;;;;;;;8.16;62.22;101758.63;87646;1283;100134;-68
2022/01/18 10:34:29;;;;;;;6.70;3.80;;;;;;;7.87;62.33;101765.34;87656;1283;86954;-71
2022/01/18 10:36:53;;;;;;;6.50;3.10;;;;;;;7.13;62.41;101771.77;87673;1283;94059;-71
2022/01/18 10:39:03;;;;;;;7.30;3.30;;;;;;;6.55;62.92;101782.19;87671;1283;80301;-63
2022/01/18 10:41:28;;;;;;;9.00;4.20;;;;;;;6.26;63.18;101788.02;87634;1283;81934;-63
2022/01/18 10:43:37;;;;;;;6.90;3.60;;;;;;;5.96;63.62;101789.66;87658;1283;101021;-64
2022/01/18 10:45:43;;;;;;;10.20;3.70;;;;;;;5.73;63.81;101797.80;87676;1283;89244;-64